Time;durP1;ratioP1;P1;durP2;ratioP2;P2;SDS_P1;SDS_P2;PMS_P1;PMS_P2;Temp;Humidity;BMP_temperature;BMP_pressure;BME280_temperature;BME280_humidity;BME280_pressure;Samples;Min_cycle;Max_cycle;Signal;HPM_P1;HPM_P2
2023/03/16 00:02:19;;;;;;;12.57;5.07;;;34.00;99.90;;;;;;5054392;28;20588;-75
2023/03/16 00:04:46;;;;;;;11.07;5.10;;;33.80;99.90;;;;;;5053600;28;20238;-75
2023/03/16 00:07:15;;;;;;;11.63;4.65;;;33.90;99.90;;;;;;5050925;28;20181;-76
2023/03/16 00:09:42;;;;;;;9.43;4.70;;;33.10;99.90;;;;;;5052895;28;20184;-76
2023/03/16 00:12:15;;;;;;;13.32;4.97;;;33.70;99.90;;;;;;5050478;28;20279;-75
2023/03/16 00:14:45;;;;;;;11.48;4.80;;;33.50;99.90;;;;;;5053703;28;20219;-76
2023/03/16 00:17:17;;;;;;;12.45;5.18;;;33.50;99.90;;;;;;5054186;28;20251;-76
2023/03/16 00:19:53;;;;;;;12.05;4.53;;;34.30;99.90;;;;;;5053372;28;20189;-74
2023/03/16 00:22:23;;;;;;;17.23;6.03;;;34.80;99.90;;;;;;5050549;28;20195;-78
2023/03/16 00:24:51;;;;;;;11.85;4.85;;;35.00;99.90;;;;;;5050117;28;20210;-76
2023/03/16 00:27:21;;;;;;;9.18;4.07;;;34.90;99.90;;;;;;5053094;28;20193;-74
2023/03/16 00:29:54;;;;;;;12.43;3.95;;;35.10;99.90;;;;;;5053549;28;20177;-74
2023/03/16 00:32:23;;;;;;;9.90;4.85;;;35.20;99.90;;;;;;5051966;28;20548;-75
2023/03/16 00:34:50;;;;;;;7.15;3.10;;;35.90;99.90;;;;;;5049409;28;20243;-76
2023/03/16 00:37:22;;;;;;;10.65;3.40;;;35.90;99.90;;;;;;5054110;28;20246;-75
2023/03/16 00:39:50;;;;;;;6.20;2.83;;;36.50;99.90;;;;;;5051218;28;20177;-75
2023/03/16 00:42:19;;;;;;;6.88;2.45;;;36.40;95.90;;;;;;5051108;28;20702;-76
2023/03/16 00:44:46;;;;;;;7.15;2.30;;;36.00;96.50;;;;;;5052448;28;20173;-76
2023/03/16 00:47:14;;;;;;;16.35;2.70;;;36.00;94.00;;;;;;5053071;28;20239;-76
2023/03/16 00:49:45;;;;;;;9.05;2.85;;;35.90;94.80;;;;;;5052368;28;20184;-76
2023/03/16 00:52:13;;;;;;;5.45;2.55;;;35.60;96.30;;;;;;5049206;28;20234;-76
2023/03/16 00:54:43;;;;;;;6.82;2.95;;;35.40;98.00;;;;;;5036971;28;20216;-74
2023/03/16 00:57:12;;;;;;;9.48;2.53;;;35.60;98.90;;;;;;5035649;28;20223;-75
2023/03/16 00:59:41;;;;;;;6.55;3.55;;;35.80;96.10;;;;;;5053700;28;20650;-75
2023/03/16 01:02:09;;;;;;;5.57;3.13;;;36.00;96.50;;;;;;5049402;28;20276;-75
2023/03/16 01:04:38;;;;;;;8.43;3.00;;;36.10;99.90;;;;;;5051581;28;20192;-74
2023/03/16 01:07:07;;;;;;;11.95;4.40;;;36.40;95.10;;;;;;5052768;28;20192;-76
2023/03/16 01:09:35;;;;;;;6.85;2.80;;;36.20;96.20;;;;;;5053567;28;20263;-77
2023/03/16 01:12:09;;;;;;;5.43;3.35;;;36.20;95.30;;;;;;5053021;28;20195;-75
2023/03/16 01:14:36;;;;;;;6.80;3.33;;;36.40;95.50;;;;;;5053579;28;20261;-75
2023/03/16 01:17:07;;;;;;;6.22;2.55;;;36.50;92.60;;;;;;5043844;28;20720;-77
2023/03/16 01:19:35;;;;;;;7.85;2.78;;;36.50;86.30;;;;;;5033677;28;20553;-75
2023/03/16 01:22:08;;;;;;;7.60;3.13;;;36.70;90.70;;;;;;5048465;28;20268;-75
2023/03/16 01:24:37;;;;;;;7.45;2.83;;;37.20;91.70;;;;;;5033406;28;20229;-75
2023/03/16 01:27:05;;;;;;;7.30;3.53;;;37.60;93.30;;;;;;5052251;28;20216;-75
2023/03/16 01:29:33;;;;;;;9.65;2.92;;;38.10;83.50;;;;;;5053393;28;20172;-74
2023/03/16 01:32:03;;;;;;;4.75;2.47;;;37.80;76.20;;;;;;5053263;28;20179;-75
2023/03/16 01:34:31;;;;;;;6.55;3.05;;;37.70;75.30;;;;;;5051875;28;20682;-75
2023/03/16 01:36:59;;;;;;;6.05;2.47;;;38.20;74.60;;;;;;5051601;28;20242;-76
2023/03/16 01:39:26;;;;;;;5.93;2.78;;;38.10;63.50;;;;;;5038966;28;20196;-75
2023/03/16 01:41:54;;;;;;;7.97;2.88;;;37.60;69.60;;;;;;5033074;28;20514;-71
2023/03/16 01:44:29;;;;;;;7.00;3.03;;;37.40;65.40;;;;;;5048565;28;20538;-71
2023/03/16 01:46:57;;;;;;;4.05;2.60;;;36.70;71.90;;;;;;5031519;28;20669;-75
2023/03/16 01:49:35;;;;;;;6.57;2.08;;;37.00;65.00;;;;;;5033068;28;20458;-74
2023/03/16 01:52:12;;;;;;;6.15;2.85;;;37.20;60.40;;;;;;5033974;28;20949;-75
2023/03/16 01:54:45;;;;;;;3.80;2.38;;;37.80;59.30;;;;;;5052700;28;20578;-75
2023/03/16 01:57:12;;;;;;;4.68;1.95;;;37.40;64.80;;;;;;5052273;28;20275;-74
2023/03/16 02:00:17;;;;;;;4.18;2.05;;;37.70;59.10;;;;;;5052661;28;20177;-75
2023/03/16 02:02:48;;;;;;;4.10;1.75;;;37.80;57.70;;;;;;5051844;28;20188;-77
2023/03/16 02:08:39;;;;;;;6.25;2.00;;;38.20;55.20;;;;;;5052127;28;20191;-73
2023/03/16 02:11:08;;;;;;;5.40;2.40;;;38.00;55.30;;;;;;5051958;28;20181;-75
2023/03/16 02:13:36;;;;;;;8.25;2.47;;;37.80;51.50;;;;;;5040579;28;20185;-75
2023/03/16 02:16:06;;;;;;;7.20;2.33;;;37.70;54.00;;;;;;5038574;28;20184;-75
2023/03/16 02:18:34;;;;;;;5.93;2.03;;;38.10;52.70;;;;;;5043090;28;20178;-71
2023/03/16 02:21:24;;;;;;;3.65;1.60;;;37.70;51.20;;;;;;5032194;28;20181;-74
2023/03/16 02:23:52;;;;;;;4.68;1.65;;;37.80;49.20;;;;;;5043120;28;20592;-76
2023/03/16 02:26:34;;;;;;;4.95;1.65;;;37.80;49.80;;;;;;5047655;28;20200;-75
2023/03/16 02:29:20;;;;;;;6.65;1.80;;;38.30;46.20;;;;;;5047515;28;20208;-74
2023/03/16 02:31:48;;;;;;;6.50;1.40;;;38.80;48.50;;;;;;5047900;28;20735;-73
2023/03/16 02:34:17;;;;;;;5.63;1.23;;;38.70;44.20;;;;;;5037714;28;20259;-72
2023/03/16 02:36:47;;;;;;;4.80;1.58;;;38.20;41.40;;;;;;5052240;28;20536;-73
2023/03/16 02:39:15;;;;;;;4.57;1.40;;;37.90;46.90;;;;;;5051521;28;20567;-72
2023/03/16 02:41:43;;;;;;;6.68;1.50;;;38.30;42.90;;;;;;5051802;28;20191;-75
2023/03/16 02:44:14;;;;;;;2.80;1.40;;;38.50;43.30;;;;;;5050849;28;20650;-75
2023/03/16 02:46:43;;;;;;;3.33;1.70;;;38.50;43.00;;;;;;5051277;28;20222;-76
2023/03/16 02:49:15;;;;;;;4.25;1.50;;;38.50;42.50;;;;;;5051469;28;20172;-76
2023/03/16 02:51:44;;;;;;;3.42;1.30;;;38.70;43.30;;;;;;5051800;28;20199;-77
2023/03/16 02:54:13;;;;;;;3.90;1.50;;;38.60;44.20;;;;;;5042670;28;20215;-76
2023/03/16 02:56:41;;;;;;;4.53;1.50;;;38.90;43.90;;;;;;5042315;28;20195;-76
2023/03/16 02:59:08;;;;;;;6.93;1.50;;;38.70;39.10;;;;;;5051430;28;20221;-74
2023/03/16 03:01:36;;;;;;;6.63;1.70;;;38.80;37.60;;;;;;5037670;28;20189;-76
2023/03/16 03:04:05;;;;;;;5.70;1.55;;;38.90;41.20;;;;;;5047861;28;20172;-74
2023/03/16 03:06:33;;;;;;;4.50;1.35;;;39.30;41.10;;;;;;5045193;28;20184;-76
2023/03/16 03:09:02;;;;;;;6.13;1.55;;;39.40;40.40;;;;;;5048197;28;20172;-74
2023/03/16 03:11:30;;;;;;;10.23;1.15;;;40.00;40.00;;;;;;5050943;28;20180;-73
2023/03/16 03:13:58;;;;;;;7.03;1.65;;;39.80;34.50;;;;;;5046242;28;20227;-74
2023/03/16 03:16:26;;;;;;;2.42;1.63;;;39.70;33.50;;;;;;5048288;28;20184;-74
2023/03/16 03:18:53;;;;;;;4.28;1.45;;;39.60;35.70;;;;;;5051246;28;20183;-74
2023/03/16 03:21:22;;;;;;;4.10;1.20;;;40.10;35.50;;;;;;5040958;28;20177;-75
2023/03/16 03:23:51;;;;;;;4.53;1.33;;;39.80;31.50;;;;;;5032886;28;20231;-76
2023/03/16 03:26:19;;;;;;;3.58;1.33;;;39.70;32.40;;;;;;5048461;28;20196;-72
2023/03/16 03:28:47;;;;;;;2.70;1.10;;;39.40;29.20;;;;;;5049527;28;20630;-76
2023/03/16 03:31:16;;;;;;;4.72;1.17;;;39.40;29.20;;;;;;5051232;28;20357;-75
2023/03/16 03:33:44;;;;;;;1.98;1.00;;;39.40;26.80;;;;;;5049213;28;20583;-74
2023/03/16 03:36:13;;;;;;;6.43;1.10;;;39.20;27.60;;;;;;5047403;28;20188;-75
2023/03/16 03:38:40;;;;;;;3.10;1.02;;;39.20;25.20;;;;;;5050180;28;20264;-71
2023/03/16 03:41:08;;;;;;;1.48;0.70;;;39.40;24.90;;;;;;5051060;28;20653;-75
2023/03/16 03:43:36;;;;;;;1.98;0.93;;;39.60;25.00;;;;;;5038836;28;20175;-75
2023/03/16 03:46:04;;;;;;;2.88;1.02;;;39.50;24.60;;;;;;5042003;28;20191;-76
2023/03/16 03:48:32;;;;;;;2.28;0.93;;;39.50;25.80;;;;;;5052866;28;20272;-76
2023/03/16 03:51:00;;;;;;;5.50;0.73;;;39.50;26.20;;;;;;5048790;28;20180;-74
2023/03/16 03:53:28;;;;;;;3.35;1.35;;;39.20;23.80;;;;;;5048181;28;20185;-75
2023/03/16 03:55:56;;;;;;;4.68;1.10;;;39.10;24.30;;;;;;5046864;28;20193;-74
2023/03/16 03:58:23;;;;;;;2.22;0.70;;;39.00;22.80;;;;;;5049294;28;20207;-71
2023/03/16 04:00:52;;;;;;;6.45;0.73;;;38.90;23.00;;;;;;5050766;28;20722;-73
2023/03/16 04:03:20;;;;;;;4.70;0.80;;;39.00;23.30;;;;;;5050648;28;21009;-73
2023/03/16 04:05:48;;;;;;;1.00;0.70;;;39.20;22.20;;;;;;5049491;28;20234;-74
2023/03/16 04:08:16;;;;;;;2.47;0.70;;;39.10;23.00;;;;;;5050598;28;20191;-74
2023/03/16 04:10:43;;;;;;;3.08;0.70;;;39.20;22.60;;;;;;5053756;28;20208;-71
2023/03/16 04:13:11;;;;;;;6.53;0.63;;;39.20;18.30;;;;;;5051118;28;20189;-74
2023/03/16 04:15:39;;;;;;;4.65;0.60;;;38.90;17.50;;;;;;5052382;28;20220;-75
2023/03/16 04:18:07;;;;;;;1.48;0.50;;;38.90;16.30;;;;;;5051452;28;20204;-74
2023/03/16 04:20:35;;;;;;;2.95;0.70;;;39.00;17.40;;;;;;5053984;28;20653;-71
2023/03/16 04:23:04;;;;;;;3.08;0.60;;;38.80;16.30;;;;;;5052705;28;20216;-72
2023/03/16 04:25:31;;;;;;;3.50;0.47;;;38.70;15.40;;;;;;5052115;28;20173;-73
2023/03/16 04:28:00;;;;;;;4.43;0.60;;;38.60;16.30;;;;;;5053716;28;20650;-75
2023/03/16 04:30:29;;;;;;;1.25;0.50;;;38.80;14.90;;;;;;5051474;28;20172;-72
2023/03/16 04:32:57;;;;;;;5.07;0.77;;;38.80;15.70;;;;;;5053101;28;20196;-75
2023/03/16 04:35:25;;;;;;;5.75;0.52;;;39.00;16.90;;;;;;5051898;28;20228;-72
2023/03/16 04:37:52;;;;;;;1.05;0.43;;;38.90;15.40;;;;;;5053977;28;20175;-73
2023/03/16 04:40:20;;;;;;;1.30;0.70;;;38.70;14.50;;;;;;5053546;28;20251;-74
2023/03/16 04:42:48;;;;;;;3.50;0.85;;;38.50;14.20;;;;;;5043716;28;20299;-76
2023/03/16 04:45:20;;;;;;;1.73;0.57;;;38.40;13.90;;;;;;5051479;28;20599;-75
2023/03/16 04:47:48;;;;;;;3.15;0.50;;;38.40;14.60;;;;;;5047715;28;20355;-75
2023/03/16 04:50:16;;;;;;;4.10;1.05;;;38.30;14.90;;;;;;5050846;28;20215;-75
2023/03/16 04:52:44;;;;;;;3.90;0.40;;;38.40;14.90;;;;;;5046997;28;20174;-76
2023/03/16 04:55:12;;;;;;;3.42;0.68;;;38.40;14.40;;;;;;5044664;28;20227;-74
2023/03/16 04:57:40;;;;;;;1.90;0.65;;;38.60;15.20;;;;;;5052372;28;20259;-74
2023/03/16 05:00:10;;;;;;;1.30;0.60;;;38.80;14.00;;;;;;5050894;28;20181;-76
2023/03/16 05:02:38;;;;;;;3.60;0.82;;;38.60;13.80;;;;;;5053060;28;20582;-73
2023/03/16 05:05:06;;;;;;;7.55;0.70;;;38.60;15.10;;;;;;5052366;28;20204;-71
2023/03/16 05:07:34;;;;;;;6.45;0.80;;;38.40;14.30;;;;;;5049415;28;20195;-75
2023/03/16 05:10:02;;;;;;;3.67;0.80;;;38.20;14.70;;;;;;5052834;28;20274;-73
2023/03/16 05:12:30;;;;;;;4.32;1.00;;;38.10;14.60;;;;;;5051822;28;20181;-74
2023/03/16 05:14:58;;;;;;;3.08;0.60;;;37.90;14.10;;;;;;5053044;28;20240;-75
2023/03/16 05:17:25;;;;;;;2.13;0.60;;;37.90;14.50;;;;;;5051210;28;20188;-73
2023/03/16 05:19:53;;;;;;;3.65;0.70;;;38.00;15.00;;;;;;5052728;28;20539;-75
2023/03/16 05:22:21;;;;;;;3.05;0.80;;;38.00;15.10;;;;;;5051764;28;20705;-73
2023/03/16 05:24:49;;;;;;;2.72;0.80;;;37.90;15.10;;;;;;5051685;28;20197;-72
2023/03/16 05:27:17;;;;;;;2.58;0.60;;;37.80;15.10;;;;;;5051475;28;20279;-71
2023/03/16 05:29:45;;;;;;;2.08;0.70;;;37.80;14.80;;;;;;5052709;28;20595;-75
2023/03/16 05:32:13;;;;;;;2.75;0.50;;;37.70;14.70;;;;;;5050808;28;20666;-73
2023/03/16 05:34:42;;;;;;;4.65;0.60;;;37.70;14.60;;;;;;5038399;28;20200;-70
2023/03/16 05:37:10;;;;;;;1.15;0.50;;;37.70;15.30;;;;;;5045608;28;20184;-76
2023/03/16 05:43:30;;;;;;;5.22;0.80;;;37.40;14.50;;;;;;5038637;28;20396;-75
2023/03/16 05:45:58;;;;;;;2.78;0.73;;;37.40;15.50;;;;;;5051097;28;20189;-72
2023/03/16 05:51:49;;;;;;;2.08;0.55;;;37.40;15.40;;;;;;5036257;28;20250;-74
2023/03/16 05:54:20;;;;;;;5.47;0.50;;;37.40;16.50;;;;;;5050709;28;20209;-73
2023/03/16 05:56:48;;;;;;;1.13;0.63;;;37.20;14.90;;;;;;5051999;28;20512;-74
2023/03/16 05:59:19;;;;;;;3.08;0.77;;;37.30;15.30;;;;;;5037420;28;20189;-74
2023/03/16 06:01:48;;;;;;;1.13;0.68;;;37.30;16.40;;;;;;5035249;28;20566;-75
2023/03/16 06:04:16;;;;;;;3.13;0.68;;;37.40;16.20;;;;;;5051696;28;20192;-74
2023/03/16 06:06:44;;;;;;;1.75;0.55;;;37.30;16.00;;;;;;5051600;28;20195;-75
2023/03/16 06:09:11;;;;;;;8.35;0.70;;;37.20;15.80;;;;;;5051705;28;20191;-74
2023/03/16 06:11:39;;;;;;;3.95;0.50;;;37.20;16.00;;;;;;5035306;28;20180;-74
2023/03/16 06:14:07;;;;;;;2.20;0.70;;;37.30;17.00;;;;;;5045225;28;20675;-74
2023/03/16 06:16:35;;;;;;;1.63;0.55;;;37.30;15.50;;;;;;5041778;28;20194;-74
2023/03/16 06:19:03;;;;;;;7.18;0.93;;;37.20;15.80;;;;;;5037288;28;20186;-75
2023/03/16 06:21:30;;;;;;;3.28;0.65;;;37.20;16.10;;;;;;5049351;28;20204;-75
2023/03/16 06:23:58;;;;;;;7.22;0.70;;;37.30;16.30;;;;;;5051006;28;20227;-71
2023/03/16 06:26:26;;;;;;;1.25;0.43;;;37.30;16.50;;;;;;5051369;28;20184;-75
2023/03/16 06:28:54;;;;;;;1.90;1.00;;;37.20;16.80;;;;;;5038999;28;20265;-76
2023/03/16 06:31:22;;;;;;;1.83;0.73;;;37.30;17.40;;;;;;5036897;28;20196;-75
2023/03/16 06:33:50;;;;;;;3.28;0.50;;;37.30;16.60;;;;;;5030218;28;20263;-74
2023/03/16 06:36:18;;;;;;;3.47;0.80;;;37.30;16.40;;;;;;5031459;28;20264;-75
2023/03/16 06:38:45;;;;;;;5.85;0.70;;;37.30;17.00;;;;;;5034838;28;20223;-74
2023/03/16 06:41:17;;;;;;;6.70;0.50;;;37.20;17.10;;;;;;5050259;28;20188;-74
2023/03/16 06:43:45;;;;;;;2.40;0.50;;;37.20;17.20;;;;;;5049424;28;20192;-75
2023/03/16 06:46:13;;;;;;;2.83;0.65;;;37.10;15.80;;;;;;5050775;28;20207;-75
2023/03/16 06:48:41;;;;;;;2.28;0.80;;;37.00;16.50;;;;;;5046673;28;20182;-76
2023/03/16 06:51:08;;;;;;;7.80;0.82;;;36.90;17.00;;;;;;5031608;28;20189;-71
2023/03/16 06:53:36;;;;;;;5.03;0.95;;;36.70;18.50;;;;;;5031427;28;21213;-76
2023/03/16 06:56:04;;;;;;;2.50;0.60;;;36.70;17.60;;;;;;5055727;28;20189;-71
2023/03/16 06:58:32;;;;;;;3.95;1.00;;;36.70;17.40;;;;;;5052405;28;20176;-76
2023/03/16 07:01:03;;;;;;;5.93;0.85;;;36.80;18.20;;;;;;5039687;28;20177;-74
2023/03/16 07:03:31;;;;;;;2.85;0.73;;;36.70;17.50;;;;;;5038060;28;20234;-72
2023/03/16 07:05:59;;;;;;;2.85;0.80;;;36.60;16.40;;;;;;5043105;28;20189;-72
2023/03/16 07:08:27;;;;;;;4.85;0.70;;;36.50;16.40;;;;;;5030215;28;20196;-76
2023/03/16 07:10:54;;;;;;;4.53;0.60;;;36.50;16.60;;;;;;5031033;28;20188;-75
2023/03/16 07:13:22;;;;;;;2.65;0.60;;;36.50;16.40;;;;;;5035979;28;20188;-75
2023/03/16 07:15:53;;;;;;;3.85;0.68;;;36.40;16.40;;;;;;5049963;28;20222;-75
2023/03/16 07:18:21;;;;;;;2.45;0.70;;;36.30;16.50;;;;;;5050003;28;20659;-75
2023/03/16 07:20:49;;;;;;;3.13;0.60;;;36.10;16.30;;;;;;5049667;28;20180;-73
2023/03/16 07:23:17;;;;;;;3.42;0.77;;;35.90;16.60;;;;;;5048833;28;20232;-73
2023/03/16 07:25:44;;;;;;;9.10;0.90;;;35.70;17.60;;;;;;5045620;28;20216;-74
2023/03/16 07:28:12;;;;;;;2.92;0.85;;;35.60;18.00;;;;;;5048261;28;20191;-76
2023/03/16 07:30:40;;;;;;;1.95;1.02;;;35.30;18.90;;;;;;5049642;28;20212;-73
2023/03/16 07:33:08;;;;;;;6.93;1.10;;;35.20;19.20;;;;;;5037959;28;20193;-74
2023/03/16 07:35:36;;;;;;;1.52;0.63;;;35.00;19.90;;;;;;5032138;28;20216;-73
2023/03/16 07:38:04;;;;;;;3.53;0.75;;;34.80;19.40;;;;;;5019408;28;20196;-74
2023/03/16 07:40:33;;;;;;;6.20;0.75;;;34.80;20.00;;;;;;5054151;28;20172;-72
2023/03/16 07:43:01;;;;;;;4.03;0.60;;;34.50;21.30;;;;;;5040814;28;20177;-72
2023/03/16 07:45:32;;;;;;;6.32;0.70;;;34.30;20.70;;;;;;5052688;28;20227;-74
2023/03/16 07:48:00;;;;;;;2.65;0.73;;;34.20;21.30;;;;;;5036452;28;20658;-75
2023/03/16 07:50:28;;;;;;;4.75;1.00;;;34.00;21.30;;;;;;5054717;28;20181;-74
2023/03/16 07:52:56;;;;;;;3.97;1.10;;;33.90;21.20;;;;;;5054799;28;20181;-74
2023/03/16 07:55:24;;;;;;;3.22;0.70;;;33.90;21.50;;;;;;5054678;28;20212;-74
2023/03/16 07:57:52;;;;;;;1.05;0.40;;;33.70;21.80;;;;;;5053230;28;20180;-74
2023/03/16 08:00:25;;;;;;;1.33;0.45;;;33.60;22.10;;;;;;5054829;28;20195;-73
2023/03/16 08:02:56;;;;;;;3.25;1.10;;;33.60;23.00;;;;;;5054912;28;20284;-74
2023/03/16 08:05:25;;;;;;;1.48;0.68;;;33.30;23.00;;;;;;5055390;28;20658;-74
2023/03/16 08:07:54;;;;;;;3.58;0.85;;;33.20;24.00;;;;;;5053409;28;20181;-75
2023/03/16 08:10:23;;;;;;;1.23;0.68;;;33.00;24.10;;;;;;5034482;28;20178;-74
2023/03/16 08:12:51;;;;;;;4.20;0.82;;;32.70;25.20;;;;;;5034652;28;20292;-76
2023/03/16 08:15:21;;;;;;;3.40;0.75;;;32.50;25.10;;;;;;5034283;28;20655;-74
2023/03/16 08:17:49;;;;;;;4.55;0.80;;;32.30;25.30;;;;;;5062442;28;20192;-74
2023/03/16 08:20:17;;;;;;;2.40;0.82;;;32.10;25.30;;;;;;5044049;28;20185;-74
2023/03/16 08:22:45;;;;;;;1.48;0.65;;;31.90;25.80;;;;;;5042576;28;20762;-73
2023/03/16 08:25:14;;;;;;;2.78;0.75;;;31.70;25.30;;;;;;5052728;28;20185;-75
2023/03/16 08:27:42;;;;;;;2.53;0.80;;;31.50;26.30;;;;;;5053806;28;20231;-75
2023/03/16 08:30:11;;;;;;;5.93;1.00;;;31.40;27.10;;;;;;5034746;28;20196;-73
2023/03/16 08:32:45;;;;;;;0.65;0.43;;;31.20;28.50;;;;;;5033892;28;20175;-73
2023/03/16 08:35:15;;;;;;;3.85;0.88;;;31.00;29.60;;;;;;5032481;28;20209;-74
2023/03/16 08:37:45;;;;;;;1.50;0.60;;;30.80;29.50;;;;;;5050647;28;20221;-74
2023/03/16 08:40:14;;;;;;;2.05;0.65;;;30.70;30.70;;;;;;5052195;28;20225;-74
2023/03/16 08:42:43;;;;;;;2.83;0.50;;;30.60;31.80;;;;;;5053679;28;20284;-74
2023/03/16 08:45:12;;;;;;;2.25;0.63;;;30.30;34.20;;;;;;5052341;28;20188;-74
2023/03/16 08:47:40;;;;;;;2.25;0.60;;;30.20;36.70;;;;;;5034531;28;20304;-75
2023/03/16 08:50:11;;;;;;;0.85;0.55;;;30.10;39.70;;;;;;5043417;28;20180;-74
2023/03/16 08:52:39;;;;;;;5.23;1.00;;;30.00;36.60;;;;;;5050847;28;20646;-74
2023/03/16 08:55:09;;;;;;;3.03;1.10;;;29.90;42.00;;;;;;5049690;28;20208;-74
2023/03/16 08:57:40;;;;;;;1.43;1.00;;;29.70;46.60;;;;;;5035832;28;20263;-73
2023/03/16 09:00:12;;;;;;;2.00;0.70;;;29.50;47.10;;;;;;5036546;28;20189;-74
2023/03/16 09:02:41;;;;;;;7.60;2.77;;;29.40;50.50;;;;;;5038832;28;20181;-74
2023/03/16 09:05:11;;;;;;;7.73;2.57;;;29.20;56.20;;;;;;5051475;28;20200;-75
2023/03/16 09:07:41;;;;;;;4.93;1.60;;;29.00;60.20;;;;;;5050089;28;20180;-72
2023/03/16 09:10:13;;;;;;;4.03;1.37;;;28.80;69.20;;;;;;5043261;28;20540;-72
2023/03/16 09:12:41;;;;;;;2.17;1.10;;;28.60;79.70;;;;;;5041573;28;20211;-72
2023/03/16 09:15:12;;;;;;;3.03;1.10;;;28.50;81.00;;;;;;5052499;28;20639;-73
2023/03/16 09:17:44;;;;;;;5.40;1.40;;;28.40;88.40;;;;;;5051618;28;20173;-73
2023/03/16 09:20:15;;;;;;;2.80;0.90;;;28.50;69.40;;;;;;5052329;28;20511;-72
2023/03/16 09:22:42;;;;;;;4.93;1.30;;;28.60;56.10;;;;;;5043886;28;20235;-72
2023/03/16 09:25:10;;;;;;;5.93;0.70;;;29.00;47.40;;;;;;5033114;28;20201;-73
2023/03/16 09:27:38;;;;;;;2.80;0.53;;;29.50;42.90;;;;;;5038940;28;20177;-73
2023/03/16 09:30:09;;;;;;;2.73;0.70;;;30.10;38.60;;;;;;5050147;28;20184;-71
2023/03/16 09:32:37;;;;;;;1.47;0.50;;;30.30;36.00;;;;;;5052018;28;20179;-72
2023/03/16 09:35:06;;;;;;;1.93;0.50;;;30.70;33.90;;;;;;5049727;28;20621;-72
2023/03/16 09:37:34;;;;;;;7.17;0.70;;;30.80;32.70;;;;;;5051611;28;20172;-73
2023/03/16 09:40:02;;;;;;;1.60;0.50;;;30.80;31.30;;;;;;5051094;28;20165;-73
2023/03/16 09:42:49;;;;;;;4.32;0.30;;;30.90;27.10;;;;;;5051791;28;20649;-72
2023/03/16 09:45:28;;;;;;;5.57;0.53;;;31.10;24.90;;;;;;5051572;28;20198;-72
2023/03/16 09:48:00;;;;;;;4.10;0.27;;;31.20;23.90;;;;;;5050852;28;20220;-72
2023/03/16 09:50:34;;;;;;;1.20;0.50;;;31.20;23.30;;;;;;5049952;28;20673;-72
2023/03/16 09:53:26;;;;;;;3.63;0.40;;;31.20;22.40;;;;;;5051291;28;20180;-72
2023/03/16 09:56:02;;;;;;;2.45;0.30;;;31.10;22.40;;;;;;5050986;28;20335;-72
2023/03/16 09:58:33;;;;;;;3.22;0.45;;;31.20;21.60;;;;;;5049637;28;20714;-73
2023/03/16 10:01:08;;;;;;;1.70;0.30;;;31.20;21.20;;;;;;5049128;28;20200;-73
2023/03/16 10:04:00;;;;;;;3.38;0.63;;;31.00;21.40;;;;;;5051718;28;20176;-71
2023/03/16 10:06:30;;;;;;;3.27;0.40;;;31.10;20.90;;;;;;5050196;28;20268;-73
2023/03/16 10:09:03;;;;;;;1.33;0.53;;;31.00;20.40;;;;;;5051875;28;20656;-72
2023/03/16 10:11:43;;;;;;;1.47;0.60;;;31.00;20.50;;;;;;5051491;28;20219;-71
2023/03/16 10:14:24;;;;;;;0.63;0.40;;;30.90;20.80;;;;;;5050368;28;20206;-73
2023/03/16 10:17:17;;;;;;;1.60;0.30;;;30.70;21.20;;;;;;5050423;28;20663;-72
2023/03/16 10:19:59;;;;;;;1.90;0.40;;;30.40;21.70;;;;;;5049379;28;20534;-73
2023/03/16 10:22:37;;;;;;;1.63;0.60;;;30.30;22.20;;;;;;5081908;28;20260;-72
2023/03/16 10:25:17;;;;;;;0.87;0.30;;;30.10;22.30;;;;;;5049350;28;20176;-73
2023/03/16 10:27:47;;;;;;;1.03;0.40;;;30.00;22.70;;;;;;5048992;28;20634;-72
2023/03/16 10:30:27;;;;;;;0.83;0.30;;;29.80;22.90;;;;;;5051295;28;20184;-72
2023/03/16 10:32:56;;;;;;;1.60;0.50;;;29.70;23.20;;;;;;5049011;28;20660;-73
2023/03/16 10:35:47;;;;;;;2.30;0.80;;;29.60;23.20;;;;;;5051490;28;20634;-72
2023/03/16 10:38:54;;;;;;;3.23;0.80;;;29.60;23.10;;;;;;5047201;28;20275;-72
2023/03/16 10:41:31;;;;;;;1.10;0.60;;;29.50;23.00;;;;;;5027909;28;20203;-74
2023/03/16 10:44:21;;;;;;;3.33;0.63;;;29.40;23.40;;;;;;5027846;28;20184;-73
2023/03/16 10:46:58;;;;;;;1.80;0.40;;;29.40;23.40;;;;;;5041907;28;20195;-72
2023/03/16 10:49:29;;;;;;;1.70;0.50;;;29.30;23.40;;;;;;5050441;28;20188;-74
2023/03/16 10:51:59;;;;;;;2.33;0.50;;;29.20;23.80;;;;;;5051091;28;20581;-73
2023/03/16 10:54:36;;;;;;;3.60;0.60;;;28.90;24.30;;;;;;5050870;28;20196;-72
2023/03/16 10:57:26;;;;;;;1.67;0.30;;;28.90;24.30;;;;;;5050963;28;20172;-72
2023/03/16 10:59:58;;;;;;;2.63;0.40;;;28.90;24.70;;;;;;5048551;28;20187;-73
2023/03/16 11:02:35;;;;;;;0.50;0.30;;;28.90;23.90;;;;;;5049823;28;20184;-73
2023/03/16 11:05:18;;;;;;;6.50;0.60;;;28.90;24.70;;;;;;5050781;28;20210;-72
2023/03/16 11:07:51;;;;;;;2.00;0.30;;;28.80;24.70;;;;;;5049263;28;20181;-73
2023/03/16 11:10:41;;;;;;;2.60;0.60;;;28.80;24.50;;;;;;5051595;28;20541;-73
2023/03/16 11:13:09;;;;;;;2.73;0.37;;;28.60;25.10;;;;;;5053502;28;20216;-72
2023/03/16 11:15:46;;;;;;;2.10;0.30;;;28.40;25.60;;;;;;5054640;28;20215;-71
2023/03/16 11:18:47;;;;;;;3.90;0.60;;;28.40;25.40;;;;;;5052092;28;20275;-73
2023/03/16 11:21:27;;;;;;;1.77;0.50;;;28.30;25.10;;;;;;5051751;28;20204;-72
2023/03/16 11:23:57;;;;;;;1.53;0.47;;;28.30;25.70;;;;;;5052712;28;20220;-73
2023/03/16 11:26:54;;;;;;;3.93;0.40;;;28.10;26.10;;;;;;5055022;28;20192;-72
2023/03/16 11:29:57;;;;;;;4.33;0.40;;;28.00;27.50;;;;;;5039665;28;20197;-73
2023/03/16 11:32:37;;;;;;;3.67;0.40;;;27.80;27.00;;;;;;5054154;28;20180;-73
2023/03/16 11:35:16;;;;;;;1.70;0.50;;;27.60;27.90;;;;;;5050985;28;20581;-72
2023/03/16 11:38:11;;;;;;;0.57;0.40;;;27.40;29.00;;;;;;5052833;28;20266;-72
2023/03/16 11:40:46;;;;;;;2.37;0.70;;;27.20;30.00;;;;;;5050640;28;20246;-72
2023/03/16 11:43:26;;;;;;;7.37;1.03;;;27.00;31.50;;;;;;5050030;28;20180;-72
2023/03/16 11:46:15;;;;;;;2.43;0.30;;;26.80;33.20;;;;;;5051286;28;20191;-73
2023/03/16 11:49:07;;;;;;;6.43;0.50;;;26.60;34.30;;;;;;5050397;28;20590;-71
2023/03/16 11:52:04;;;;;;;1.30;0.40;;;26.50;33.30;;;;;;5051248;28;20188;-72
2023/03/16 11:54:47;;;;;;;1.67;0.53;;;26.40;36.10;;;;;;5045466;28;20618;-72
2023/03/16 11:57:36;;;;;;;5.67;0.60;;;26.30;39.50;;;;;;5051908;28;20220;-71
2023/03/16 12:00:30;;;;;;;2.57;0.50;;;26.10;40.40;;;;;;5043025;28;20407;-72
2023/03/16 12:03:29;;;;;;;1.03;0.33;;;25.90;44.60;;;;;;5045209;28;20181;-72
2023/03/16 12:06:47;;;;;;;1.73;0.57;;;25.80;51.40;;;;;;5048427;28;20180;-71
2023/03/16 12:09:42;;;;;;;1.20;0.40;;;25.60;55.90;;;;;;5035750;28;20195;-71
2023/03/16 12:12:30;;;;;;;3.50;0.50;;;25.40;57.60;;;;;;5043528;28;20200;-71
2023/03/16 12:15:23;;;;;;;4.70;0.50;;;25.20;69.60;;;;;;5055466;28;20682;-71
2023/03/16 12:17:56;;;;;;;1.97;0.37;;;25.10;82.20;;;;;;5052151;28;20220;-71
2023/03/16 12:20:30;;;;;;;2.00;0.50;;;25.00;89.40;;;;;;5038149;28;20208;-71
2023/03/16 12:23:13;;;;;;;0.63;0.30;;;24.90;97.30;;;;;;5054025;28;20251;-72
2023/03/16 12:25:46;;;;;;;2.23;0.60;;;24.80;99.90;;;;;;5034600;28;20207;-73
2023/03/16 12:28:25;;;;;;;0.53;0.40;;;24.60;99.90;;;;;;5043460;28;20185;-71
2023/03/16 12:31:13;;;;;;;2.97;0.60;;;24.60;99.90;;;;;;5047014;28;20187;-71
2023/03/16 12:37:23;;;;;;;1.73;0.40;;;24.40;99.90;;;;;;5050684;28;20284;-72
2023/03/16 12:40:17;;;;;;;1.63;0.47;;;24.30;99.90;;;;;;5052336;28;20286;-72
2023/03/16 12:43:21;;;;;;;1.40;0.50;;;24.20;99.90;;;;;;5051257;28;20196;-71
2023/03/16 12:46:27;;;;;;;3.23;0.40;;;24.20;99.90;;;;;;5054482;28;20650;-72
2023/03/16 12:49:01;;;;;;;2.90;0.43;;;24.10;99.90;;;;;;5012642;28;20204;-73
2023/03/16 12:51:37;;;;;;;4.33;0.70;;;24.10;99.90;;;;;;5050653;28;20192;-71
2023/03/16 12:54:06;;;;;;;2.30;0.60;;;24.10;99.90;;;;;;5049795;28;20212;-71
2023/03/16 12:56:45;;;;;;;4.60;0.50;;;24.00;99.90;;;;;;5042615;28;20176;-71
2023/03/16 12:59:19;;;;;;;2.87;0.90;;;23.90;99.90;;;;;;5053534;28;20188;-72
2023/03/16 13:01:57;;;;;;;1.30;0.70;;;23.80;99.90;;;;;;5054775;28;20173;-72
2023/03/16 13:04:43;;;;;;;1.87;0.67;;;23.80;99.90;;;;;;5052983;28;20181;-72
2023/03/16 13:07:22;;;;;;;7.00;0.83;;;23.60;99.90;;;;;;5051171;28;20181;-72
2023/03/16 13:10:15;;;;;;;4.63;0.90;;;23.60;99.90;;;;;;5050990;28;20241;-71
2023/03/16 13:12:45;;;;;;;3.73;0.90;;;23.50;99.90;;;;;;5050672;28;20196;-72
2023/03/16 13:15:22;;;;;;;4.37;0.73;;;23.40;99.90;;;;;;5051808;28;20281;-72
2023/03/16 13:18:03;;;;;;;2.43;0.70;;;23.40;99.90;;;;;;5051645;28;20203;-71
2023/03/16 13:20:55;;;;;;;4.20;0.70;;;23.30;99.90;;;;;;5054571;28;20187;-71
2023/03/16 13:23:48;;;;;;;2.07;0.80;;;23.20;99.90;;;;;;5034986;28;20225;-71
2023/03/16 13:26:22;;;;;;;2.93;0.67;;;23.20;99.90;;;;;;5052977;28;20720;-71
2023/03/16 13:28:54;;;;;;;2.23;0.93;;;23.10;99.90;;;;;;5051736;28;20642;-72